createdAt,value
2023-03-24T00:01:02.687Z,99689.71
2023-03-24T00:03:31.416Z,99686.70
2023-03-24T00:06:02.337Z,99687.83
2023-03-24T00:08:36.537Z,99685.38
2023-03-24T00:11:14.244Z,99686.00
2023-03-24T00:13:42.677Z,99684.80
2023-03-24T00:16:13.175Z,99685.08
2023-03-24T00:18:41.200Z,99690.46
2023-03-24T00:21:11.392Z,99688.80
2023-03-24T00:23:43.755Z,99688.15
2023-03-24T00:26:16.900Z,99688.56
2023-03-24T00:28:48.109Z,99686.33
2023-03-24T00:31:17.577Z,99690.98
2023-03-24T00:33:50.833Z,99688.71
2023-03-24T00:36:21.242Z,99684.46
2023-03-24T00:38:50.177Z,99687.33
2023-03-24T00:41:20.294Z,99689.22
2023-03-24T00:43:50.294Z,99691.98
2023-03-24T00:46:39.023Z,99688.29
2023-03-24T00:49:07.952Z,99682.38
2023-03-24T00:51:40.011Z,99680.62
2023-03-24T00:54:12.618Z,99680.88
2023-03-24T00:56:41.429Z,99674.96
2023-03-24T00:59:10.443Z,99675.83
2023-03-24T01:01:41.357Z,99672.98
2023-03-24T01:04:10.377Z,99670.73
2023-03-24T01:06:39.470Z,99670.42
2023-03-24T01:09:07.760Z,99668.09
2023-03-24T01:11:41.378Z,99668.45
2023-03-24T01:14:11.533Z,99667.92
2023-03-24T01:16:39.826Z,99669.85
2023-03-24T01:19:10.552Z,99670.75
2023-03-24T01:21:40.059Z,99661.23
2023-03-24T01:24:08.353Z,99654.92
2023-03-24T01:26:36.259Z,99659.25
2023-03-24T01:29:06.440Z,99664.45
2023-03-24T01:31:34.604Z,99664.48
2023-03-24T01:34:03.236Z,99669.25
2023-03-24T01:36:31.095Z,99668.27
2023-03-24T01:39:01.210Z,99666.65
2023-03-24T01:41:40.938Z,99661.98
2023-03-24T01:44:27.474Z,99662.11
2023-03-24T01:46:56.935Z,99660.73
2023-03-24T01:49:31.778Z,99660.27
2023-03-24T01:52:02.350Z,99661.66
2023-03-24T01:54:37.328Z,99662.07
2023-03-24T01:57:22.883Z,99661.22
2023-03-24T01:59:56.110Z,99658.19
2023-03-24T02:02:46.077Z,99655.90
2023-03-24T02:05:15.692Z,99659.98
2023-03-24T02:08:07.312Z,99653.23
2023-03-24T02:10:37.459Z,99649.30
2023-03-24T02:13:06.502Z,99648.73
2023-03-24T02:15:55.688Z,99645.34
2023-03-24T02:18:45.082Z,99647.63
2023-03-24T02:21:12.938Z,99646.36
2023-03-24T02:24:07.490Z,99642.54
2023-03-24T02:26:47.441Z,99646.13
2023-03-24T02:29:36.932Z,99643.55
2023-03-24T02:32:23.089Z,99637.55
2023-03-24T02:35:22.759Z,99637.99
2023-03-24T02:38:03.360Z,99630.25
2023-03-24T02:40:43.866Z,99630.52
2023-03-24T02:43:22.505Z,99626.70
2023-03-24T02:46:05.617Z,99630.30
2023-03-24T02:48:48.843Z,99629.61
2023-03-24T02:51:55.558Z,99634.63
2023-03-24T02:54:46.519Z,99641.10
2023-03-24T02:57:54.450Z,99645.30
2023-03-24T03:01:05.412Z,99642.48
2023-03-24T03:03:53.266Z,99640.53
2023-03-24T03:06:31.221Z,99641.55
2023-03-24T03:09:02.880Z,99648.44
2023-03-24T03:11:30.750Z,99651.98
2023-03-24T03:14:04.534Z,99658.06
2023-03-24T03:16:39.445Z,99653.75
2023-03-24T03:19:19.549Z,99655.38
2023-03-24T03:21:50.578Z,99653.77
2023-03-24T03:24:27.251Z,99655.80
2023-03-24T03:27:00.330Z,99646.67
2023-03-24T03:29:34.716Z,99646.84
2023-03-24T03:32:09.521Z,99645.33
2023-03-24T03:34:49.105Z,99653.35
2023-03-24T03:37:46.958Z,99649.09
2023-03-24T03:40:21.345Z,99649.84
2023-03-24T03:42:52.608Z,99652.98
2023-03-24T03:45:20.601Z,99649.73
2023-03-24T03:47:48.953Z,99649.21
2023-03-24T03:50:17.027Z,99645.48
2023-03-24T03:52:45.594Z,99646.27
2023-03-24T03:55:14.601Z,99644.41
2023-03-24T03:57:43.063Z,99642.33
2023-03-24T04:00:17.151Z,99640.74
2023-03-24T04:02:54.612Z,99642.61
2023-03-24T04:05:29.191Z,99640.01
2023-03-24T04:08:17.039Z,99640.65
2023-03-24T04:11:17.562Z,99633.61
2023-03-24T04:14:33.376Z,99624.48
2023-03-24T04:17:55.699Z,99622.39
2023-03-24T04:21:17.392Z,99629.27
2023-03-24T04:23:54.350Z,99634.70
2023-03-24T04:26:34.344Z,99635.02
2023-03-24T04:29:22.407Z,99631.14
2023-03-24T04:31:56.277Z,99626.93
2023-03-24T04:34:32.984Z,99628.85
2023-03-24T04:37:16.226Z,99626.77
2023-03-24T04:39:58.828Z,99619.72
2023-03-24T04:42:42.096Z,99614.05
2023-03-24T04:45:10.446Z,99612.26
2023-03-24T04:47:54.669Z,99607.28
2023-03-24T04:50:43.199Z,99605.70
2023-03-24T04:53:15.313Z,99611.11
2023-03-24T04:55:49.616Z,99611.85
2023-03-24T04:58:22.853Z,99608.42
2023-03-24T05:00:51.625Z,99609.41
2023-03-24T05:03:19.620Z,99608.04
2023-03-24T05:05:49.890Z,99608.61
2023-03-24T05:08:19.040Z,99605.80
2023-03-24T05:10:47.435Z,99603.02
2023-03-24T05:13:16.030Z,99600.67
2023-03-24T05:15:47.585Z,99600.35
2023-03-24T05:18:29.305Z,99603.06
2023-03-24T05:20:57.785Z,99595.92
2023-03-24T05:23:26.354Z,99596.09
2023-03-24T05:25:54.263Z,99593.52
2023-03-24T05:28:23.329Z,99590.16
2023-03-24T05:30:53.469Z,99582.66
2023-03-24T05:33:37.653Z,99584.23
2023-03-24T05:36:06.037Z,99577.30
2023-03-24T05:38:34.364Z,99581.13
2023-03-24T05:41:03.356Z,99584.86
2023-03-24T05:43:35.420Z,99579.43
2023-03-24T05:46:14.195Z,99582.73
2023-03-24T05:48:44.264Z,99585.13
2023-03-24T05:51:20.566Z,99583.28
2023-03-24T05:53:53.581Z,99582.30
2023-03-24T05:56:32.815Z,99577.73
2023-03-24T05:59:21.342Z,99580.27
2023-03-24T06:02:03.124Z,99579.80
2023-03-24T06:04:53.144Z,99581.42
2023-03-24T06:07:26.669Z,99583.31
2023-03-24T06:09:58.276Z,99574.98
2023-03-24T06:12:27.772Z,99574.55
2023-03-24T06:15:01.924Z,99570.73
2023-03-24T06:17:30.628Z,99574.65
2023-03-24T06:20:04.144Z,99578.26
2023-03-24T06:22:47.516Z,99580.15
2023-03-24T06:25:20.745Z,99581.80
2023-03-24T06:28:12.525Z,99575.95
2023-03-24T06:30:44.174Z,99578.89
2023-03-24T06:33:13.863Z,99582.55
2023-03-24T06:35:43.526Z,99578.58
2023-03-24T06:38:15.429Z,99577.06
2023-03-24T06:40:43.927Z,99577.69
2023-03-24T06:43:11.766Z,99577.20
2023-03-24T06:45:40.651Z,99579.73
2023-03-24T06:48:10.926Z,99579.05
2023-03-24T06:50:41.336Z,99580.29
2023-03-24T06:53:10.509Z,99587.55
2023-03-24T06:55:39.024Z,99588.56
2023-03-24T06:58:08.206Z,99588.83
2023-03-24T07:00:47.206Z,99588.21
2023-03-24T07:03:36.697Z,99585.02
2023-03-24T07:06:26.321Z,99585.44
2023-03-24T07:08:57.423Z,99586.42
2023-03-24T07:11:27.588Z,99582.09
2023-03-24T07:13:58.335Z,99585.69
2023-03-24T07:16:27.064Z,99583.30
2023-03-24T07:19:02.815Z,99583.27
2023-03-24T07:21:31.773Z,99580.97
2023-03-24T07:24:02.558Z,99577.98
2023-03-24T07:26:46.288Z,99583.01
2023-03-24T07:29:20.649Z,99578.09
2023-03-24T07:32:07.905Z,99576.88
2023-03-24T07:34:37.133Z,99575.08
2023-03-24T07:37:05.154Z,99570.20
2023-03-24T07:39:33.192Z,99568.89
2023-03-24T07:42:01.091Z,99564.92
2023-03-24T07:44:37.520Z,99562.92
2023-03-24T07:47:06.810Z,99560.45
2023-03-24T07:49:34.784Z,99553.98
2023-03-24T07:52:06.632Z,99550.60
2023-03-24T07:54:39.699Z,99544.91
2023-03-24T07:57:10.400Z,99538.94
2023-03-24T07:59:39.173Z,99538.20
2023-03-24T08:02:21.174Z,99536.69
2023-03-24T08:04:56.772Z,99538.19
2023-03-24T08:07:56.050Z,99533.39
2023-03-24T08:10:29.725Z,99532.52
2023-03-24T08:12:58.320Z,99535.56
2023-03-24T08:15:27.376Z,99536.56
2023-03-24T08:17:56.733Z,99531.60
2023-03-24T08:20:27.341Z,99529.21
2023-03-24T08:22:55.605Z,99523.81
2023-03-24T08:25:27.357Z,99519.90
2023-03-24T08:27:55.334Z,99515.38
2023-03-24T08:30:24.967Z,99509.27
2023-03-24T08:32:55.654Z,99502.96
2023-03-24T08:35:27.673Z,99501.84
2023-03-24T08:37:55.544Z,99496.60
2023-03-24T08:40:24.356Z,99493.27
2023-03-24T08:42:55.762Z,99492.27
2023-03-24T08:45:27.506Z,99482.02
2023-03-24T08:47:56.083Z,99474.83
2023-03-24T08:50:28.190Z,99472.21
2023-03-24T08:52:57.276Z,99469.80
2023-03-24T08:55:25.531Z,99462.14
2023-03-24T08:57:53.508Z,99460.39
2023-03-24T09:00:22.714Z,99453.45
2023-03-24T09:02:52.602Z,99455.73
2023-03-24T09:05:29.841Z,99451.55
2023-03-24T09:08:09.244Z,99444.54
2023-03-24T09:10:37.045Z,99445.47
2023-03-24T09:13:05.267Z,99436.27
2023-03-24T09:15:33.804Z,99430.81
2023-03-24T09:18:02.856Z,99429.55
2023-03-24T09:20:31.008Z,99422.70
2023-03-24T09:22:58.938Z,99417.93
2023-03-24T09:25:27.048Z,99414.70
2023-03-24T09:27:56.492Z,99411.72
2023-03-24T09:30:24.467Z,99413.05
2023-03-24T09:32:52.287Z,99405.63
2023-03-24T09:35:20.095Z,99406.98
2023-03-24T09:37:47.900Z,99402.84
2023-03-24T09:40:22.383Z,99398.60
2023-03-24T09:43:25.487Z,99397.83
2023-03-24T09:45:59.085Z,99395.79
2023-03-24T09:48:39.526Z,99396.55
2023-03-24T09:51:25.716Z,99394.61
2023-03-24T09:54:11.889Z,99393.30
2023-03-24T09:56:44.005Z,99384.94
2023-03-24T09:59:18.312Z,99386.10
2023-03-24T10:01:46.945Z,99385.11
2023-03-24T10:04:18.396Z,99380.11
2023-03-24T10:06:52.883Z,99375.73
2023-03-24T10:09:23.952Z,99372.83
2023-03-24T10:12:06.916Z,99369.98
2023-03-24T10:15:11.872Z,99371.45
2023-03-24T10:18:01.650Z,99366.55
2023-03-24T10:20:53.720Z,99363.14
2023-03-24T10:23:24.381Z,99361.16
2023-03-24T10:26:41.297Z,99359.54
2023-03-24T10:29:32.843Z,99361.21
2023-03-24T10:32:05.182Z,99363.73
2023-03-24T10:34:34.430Z,99353.20
2023-03-24T10:37:04.250Z,99346.52
2023-03-24T10:42:07.153Z,99348.44
2023-03-24T10:44:35.084Z,99348.36
2023-03-24T10:47:04.919Z,99351.47
2023-03-24T10:49:33.746Z,99352.52
2023-03-24T10:52:08.683Z,99351.55
2023-03-24T10:54:37.109Z,99349.16
2023-03-24T10:57:15.763Z,99350.83
2023-03-24T10:59:54.097Z,99352.35
2023-03-24T11:02:26.876Z,99350.17
2023-03-24T11:04:58.870Z,99348.92
2023-03-24T11:07:38.846Z,99346.52
2023-03-24T11:10:09.559Z,99350.58
2023-03-24T11:12:39.123Z,99349.73
2023-03-24T11:15:21.209Z,99342.27
2023-03-24T11:17:59.119Z,99332.56
2023-03-24T11:20:38.895Z,99332.45
2023-03-24T11:24:11.332Z,99327.70
2023-03-24T11:26:41.335Z,99326.17
2023-03-24T11:29:18.876Z,99316.33
2023-03-24T11:31:56.940Z,99303.00
2023-03-24T11:34:27.238Z,99303.23
2023-03-24T11:37:04.046Z,99300.88
2023-03-24T11:39:36.787Z,99290.16
2023-03-24T11:42:27.664Z,99285.77
2023-03-24T11:44:56.457Z,99283.42
2023-03-24T11:47:33.396Z,99281.16
2023-03-24T11:50:19.028Z,99272.29
2023-03-24T11:53:15.613Z,99275.75
2023-03-24T11:55:50.480Z,99275.91
2023-03-24T11:58:35.519Z,99272.41
2023-03-24T12:01:11.983Z,99267.02
2023-03-24T12:03:54.164Z,99264.21
2023-03-24T12:06:40.819Z,99264.81
2023-03-24T12:09:20.477Z,99264.80
2023-03-24T12:12:09.716Z,99259.39
2023-03-24T12:15:26.779Z,99254.92
2023-03-24T12:17:58.468Z,99248.38
2023-03-24T12:20:26.222Z,99250.43
2023-03-24T12:23:26.610Z,99252.52
2023-03-24T12:26:16.825Z,99242.86
2023-03-24T12:29:27.819Z,99242.19
2023-03-24T12:32:37.521Z,99233.30
2023-03-24T12:35:12.550Z,99226.63
2023-03-24T12:37:43.377Z,99222.19
2023-03-24T12:40:11.220Z,99220.31
2023-03-24T12:42:44.777Z,99219.17
2023-03-24T12:45:42.413Z,99211.58
2023-03-24T12:48:25.651Z,99212.36
2023-03-24T12:51:05.486Z,99206.28
2023-03-24T12:54:05.924Z,99206.33
2023-03-24T12:56:33.619Z,99198.73
2023-03-24T12:59:15.639Z,99199.48
2023-03-24T13:01:52.833Z,99192.23
2023-03-24T13:04:29.103Z,99191.40
2023-03-24T13:07:25.738Z,99188.98
2023-03-24T13:10:07.839Z,99187.15
2023-03-24T13:12:53.181Z,99181.73
2023-03-24T13:15:27.374Z,99184.14
2023-03-24T13:18:16.865Z,99179.33
2023-03-24T13:20:49.695Z,99173.65
2023-03-24T13:27:23.347Z,99173.75
2023-03-24T13:30:14.713Z,99171.92
2023-03-24T13:32:50.461Z,99172.59
2023-03-24T13:35:53.405Z,99160.73
2023-03-24T13:38:46.153Z,99159.25
2023-03-24T13:41:24.012Z,99152.16
2023-03-24T13:43:59.239Z,99146.00
2023-03-24T13:46:28.770Z,99138.20
2023-03-24T13:48:58.950Z,99132.40
2023-03-24T13:51:35.613Z,99134.12
2023-03-24T13:54:24.027Z,99132.39
2023-03-24T13:57:01.070Z,99126.80
2023-03-24T13:59:41.688Z,99130.20
2023-03-24T14:02:22.894Z,99126.35
2023-03-24T14:05:03.250Z,99121.80
2023-03-24T14:07:39.385Z,99119.66
2023-03-24T14:10:23.252Z,99115.61
2023-03-24T14:13:01.903Z,99113.00
2023-03-24T14:15:29.816Z,99113.71
2023-03-24T14:18:14.538Z,99114.09
2023-03-24T14:20:59.681Z,99107.95
2023-03-24T14:27:23.629Z,99099.63
2023-03-24T14:29:52.327Z,99095.98
2023-03-24T14:32:23.152Z,99097.55
2023-03-24T14:35:00.331Z,99090.52
2023-03-24T14:37:28.958Z,99084.73
2023-03-24T14:39:58.350Z,99081.15
2023-03-24T14:42:36.154Z,99077.54
2023-03-24T14:45:31.293Z,99073.61
2023-03-24T14:48:03.255Z,99072.68
2023-03-24T14:50:32.470Z,99073.95
2023-03-24T14:53:03.849Z,99074.70
2023-03-24T14:55:33.386Z,99074.95
2023-03-24T14:58:09.984Z,99066.98
2023-03-24T15:00:51.802Z,99060.54
2023-03-24T15:03:59.300Z,99053.23
2023-03-24T15:06:27.475Z,99052.29
2023-03-24T15:09:07.479Z,99048.27
2023-03-24T15:11:39.218Z,99041.11
2023-03-24T15:14:17.255Z,99043.69
2023-03-24T15:16:53.488Z,99037.86
2023-03-24T15:19:24.770Z,99036.86
2023-03-24T15:22:07.255Z,99035.77
2023-03-24T15:24:37.190Z,99039.98
2023-03-24T15:27:07.997Z,99040.68
2023-03-24T15:29:41.758Z,99034.15
2023-03-24T15:32:18.812Z,99032.77
2023-03-24T15:34:50.685Z,99031.65
2023-03-24T15:37:40.019Z,99030.64
2023-03-24T15:40:26.940Z,99028.59
2023-03-24T15:42:57.112Z,99028.39
2023-03-24T15:45:30.504Z,99026.78
2023-03-24T15:48:05.312Z,99025.19
2023-03-24T15:50:38.667Z,99020.62
2023-03-24T15:53:15.822Z,99021.16
2023-03-24T15:55:44.044Z,99016.76
2023-03-24T15:58:28.574Z,99014.39
2023-03-24T16:00:59.933Z,99009.15
2023-03-24T16:03:30.973Z,99009.48
2023-03-24T16:05:58.880Z,99008.34
2023-03-24T16:08:39.077Z,99002.96
2023-03-24T16:11:11.955Z,99003.50
2023-03-24T16:13:42.953Z,99003.70
2023-03-24T16:16:13.794Z,99004.71
2023-03-24T16:18:47.089Z,99003.20
2023-03-24T16:21:16.970Z,99004.30
2023-03-24T16:23:45.911Z,99006.71
2023-03-24T16:26:25.491Z,99005.20
2023-03-24T16:28:54.450Z,99007.05
2023-03-24T16:31:22.905Z,99012.05
2023-03-24T16:33:55.991Z,99016.14
2023-03-24T16:36:29.261Z,99016.63
2023-03-24T16:38:59.783Z,99016.93
2023-03-24T16:41:28.142Z,99017.87
2023-03-24T16:43:55.850Z,99025.45
2023-03-24T16:46:26.478Z,99031.64
2023-03-24T16:48:55.716Z,99035.52
2023-03-24T16:51:23.616Z,99034.84
2023-03-24T16:53:51.347Z,99043.59
2023-03-24T16:56:21.846Z,99048.91
2023-03-24T16:58:53.197Z,99054.48
2023-03-24T17:01:35.940Z,99062.60
2023-03-24T17:04:13.949Z,99070.14
2023-03-24T17:06:47.041Z,99074.61
2023-03-24T17:09:15.436Z,99083.84
2023-03-24T17:11:50.352Z,99094.27
2023-03-24T17:14:18.102Z,99104.78
2023-03-24T17:16:49.662Z,99107.22
2023-03-24T17:19:20.909Z,99115.42
2023-03-24T17:22:02.239Z,99117.02
2023-03-24T17:24:35.737Z,99115.05
2023-03-24T17:27:10.064Z,99117.98
2023-03-24T17:29:37.747Z,99119.27
2023-03-24T17:32:05.727Z,99116.50
2023-03-24T17:34:33.937Z,99118.58
2023-03-24T17:37:01.679Z,99118.41
2023-03-24T17:39:29.451Z,99120.42
2023-03-24T17:42:01.120Z,99123.46
2023-03-24T17:44:28.854Z,99123.92
2023-03-24T17:46:56.745Z,99124.25
2023-03-24T17:49:24.686Z,99129.87
2023-03-24T17:51:52.416Z,99124.51
2023-03-24T17:54:21.162Z,99126.02
2023-03-24T17:56:48.928Z,99126.21
2023-03-24T17:59:17.699Z,99125.77
2023-03-24T18:01:47.274Z,99123.61
2023-03-24T18:04:15.622Z,99122.52
2023-03-24T18:06:43.903Z,99116.13
2023-03-24T18:09:11.595Z,99111.25
2023-03-24T18:11:39.282Z,99108.67
2023-03-24T18:14:09.170Z,99104.60
2023-03-24T18:16:39.233Z,99095.45
2023-03-24T18:19:07.279Z,99092.59
2023-03-24T18:21:35.178Z,99091.92
2023-03-24T18:24:04.574Z,99084.41
2023-03-24T18:26:33.617Z,99074.13
2023-03-24T18:29:01.449Z,99070.73
2023-03-24T18:31:32.365Z,99069.48
2023-03-24T18:34:00.649Z,99063.58
2023-03-24T18:36:29.161Z,99069.61
2023-03-24T18:38:59.234Z,99072.73
2023-03-24T18:41:28.433Z,99074.13
2023-03-24T18:43:58.139Z,99072.88
2023-03-24T18:46:27.218Z,99078.53
2023-03-24T18:48:55.318Z,99073.02
2023-03-24T18:51:25.380Z,99077.05
2023-03-24T18:53:53.523Z,99072.75
2023-03-24T18:56:23.013Z,99072.96
2023-03-24T18:58:52.178Z,99070.45
2023-03-24T19:01:25.243Z,99070.14
2023-03-24T19:03:54.031Z,99066.79
2023-03-24T19:06:22.246Z,99061.13
2023-03-24T19:08:51.867Z,99069.89
2023-03-24T19:11:20.050Z,99072.52
2023-03-24T19:13:50.388Z,99069.50
2023-03-24T19:16:19.647Z,99069.77
2023-03-24T19:18:48.659Z,99065.39
2023-03-24T19:21:17.303Z,99065.12
2023-03-24T19:23:46.939Z,99067.84
2023-03-24T19:26:16.565Z,99068.36
2023-03-24T19:28:44.311Z,99073.08
2023-03-24T19:31:15.182Z,99068.89
2023-03-24T19:33:43.635Z,99071.42
2023-03-24T19:36:11.453Z,99076.13
2023-03-24T19:38:39.950Z,99073.09
2023-03-24T19:41:10.254Z,99067.34
2023-03-24T19:43:38.702Z,99063.21
2023-03-24T19:46:08.181Z,99061.02
2023-03-24T19:48:36.344Z,99063.96
2023-03-24T19:51:04.338Z,99065.96
2023-03-24T19:53:32.290Z,99063.77
2023-03-24T19:56:01.138Z,99059.98
2023-03-24T19:58:29.132Z,99062.45
2023-03-24T20:00:57.203Z,99062.60
2023-03-24T20:03:25.116Z,99061.23
2023-03-24T20:05:53.124Z,99062.95
2023-03-24T20:08:21.592Z,99057.84
2023-03-24T20:10:49.301Z,99057.84
2023-03-24T20:13:16.993Z,99062.31
2023-03-24T20:15:46.552Z,99062.34
2023-03-24T20:18:14.383Z,99058.98
2023-03-24T20:20:42.449Z,99066.65
2023-03-24T20:23:10.553Z,99065.52
2023-03-24T20:25:42.012Z,99061.71
2023-03-24T20:28:12.116Z,99063.08
2023-03-24T20:30:40.115Z,99057.77
2023-03-24T20:33:08.098Z,99065.85
2023-03-24T20:35:36.770Z,99073.92
2023-03-24T20:38:04.700Z,99108.01
2023-03-24T20:40:32.437Z,99113.84
2023-03-24T20:43:00.166Z,99115.19
2023-03-24T20:45:28.031Z,99116.11
2023-03-24T20:47:56.059Z,99123.33
2023-03-24T20:50:24.852Z,99129.09
2023-03-24T20:52:52.563Z,99132.10
2023-03-24T20:55:20.348Z,99130.55
2023-03-24T20:57:48.293Z,99128.77
2023-03-24T21:00:16.524Z,99137.98
2023-03-24T21:02:45.089Z,99141.89
2023-03-24T21:05:12.985Z,99141.46
2023-03-24T21:07:43.808Z,99145.03
2023-03-24T21:10:12.051Z,99157.09
2023-03-24T21:12:52.869Z,99164.54
2023-03-24T21:15:24.873Z,99179.14
2023-03-24T21:17:54.513Z,99191.95
2023-03-24T21:20:22.597Z,99202.59
2023-03-24T21:26:18.925Z,99195.52
2023-03-24T21:28:46.734Z,99183.67
2023-03-24T21:31:24.030Z,99171.21
2023-03-24T21:33:53.188Z,99140.60
2023-03-24T21:36:23.240Z,99120.45
2023-03-24T21:38:51.728Z,99125.73
2023-03-24T21:41:20.645Z,99117.73
2023-03-24T21:43:51.051Z,99115.55
2023-03-24T21:46:22.232Z,99116.20
2023-03-24T21:48:52.085Z,99119.94
2023-03-24T21:51:23.992Z,99123.88
2023-03-24T21:53:55.738Z,99118.36
2023-03-24T21:56:23.553Z,99123.00
2023-03-24T21:58:54.839Z,99134.46
2023-03-24T22:01:23.400Z,99145.33
2023-03-24T22:03:54.120Z,99150.63
2023-03-24T22:06:22.831Z,99159.09
2023-03-24T22:08:53.172Z,99168.16
2023-03-24T22:11:21.107Z,99174.98
2023-03-24T22:13:48.774Z,99171.26
2023-03-24T22:16:16.514Z,99172.68
2023-03-24T22:18:44.346Z,99166.88
2023-03-24T22:21:12.494Z,99162.58
2023-03-24T22:27:11.718Z,99170.48
2023-03-24T22:29:40.725Z,99167.11
2023-03-24T22:32:08.547Z,99172.41
2023-03-24T22:34:36.389Z,99175.17
2023-03-24T22:37:04.140Z,99174.25
2023-03-24T22:39:34.051Z,99170.57
2023-03-24T22:42:01.769Z,99178.38
2023-03-24T22:44:33.801Z,99184.62
2023-03-24T22:47:04.579Z,99197.52
2023-03-24T22:49:33.254Z,99208.68
2023-03-24T22:52:01.053Z,99215.81
2023-03-24T22:54:29.638Z,99211.91
2023-03-24T22:56:57.497Z,99208.80
2023-03-24T22:59:25.751Z,99203.96
2023-03-24T23:02:02.390Z,99197.89
2023-03-24T23:04:37.097Z,99202.13
2023-03-24T23:07:06.611Z,99204.42
2023-03-24T23:09:34.273Z,99206.42
2023-03-24T23:12:02.660Z,99205.34
2023-03-24T23:14:31.417Z,99214.13
2023-03-24T23:16:59.297Z,99222.55
2023-03-24T23:19:28.292Z,99232.47
2023-03-24T23:21:56.475Z,99227.77
2023-03-24T23:24:24.342Z,99223.43
2023-03-24T23:26:52.205Z,99222.94
2023-03-24T23:29:19.966Z,99230.30
2023-03-24T23:31:47.809Z,99230.09
2023-03-24T23:34:15.581Z,99230.66
2023-03-24T23:36:45.066Z,99230.14
2023-03-24T23:39:12.870Z,99222.21
2023-03-24T23:41:40.928Z,99226.51
2023-03-24T23:44:09.957Z,99231.44
2023-03-24T23:46:39.826Z,99242.98
2023-03-24T23:49:09.454Z,99243.28
2023-03-24T23:51:37.187Z,99241.95
2023-03-24T23:54:05.090Z,99243.27
2023-03-24T23:56:37.102Z,99232.02
2023-03-24T23:59:06.769Z,99226.70
